Time;durP1;ratioP1;P1;durP2;ratioP2;P2;SDS_P1;SDS_P2;PMS_P1;PMS_P2;Temp;Humidity;BMP_temperature;BMP_pressure;BME280_temperature;BME280_humidity;BME280_pressure;Samples;Min_cycle;Max_cycle;Signal;HPM_P1;HPM_P2
2021/05/30 00:01:52;;;;;;;9.57;3.10;;;;;;;23.54;41.24;99941.06;4484833;32;33890;-61
2021/05/30 00:04:20;;;;;;;9.27;2.62;;;;;;;23.54;41.03;99946.50;4483479;32;34317;-61
2021/05/30 00:06:48;;;;;;;9.50;2.10;;;;;;;23.55;40.84;99939.16;4484694;32;34003;-61
2021/05/30 00:09:15;;;;;;;9.43;2.40;;;;;;;23.56;40.80;99938.13;4484318;32;34500;-61
2021/05/30 00:11:43;;;;;;;11.63;3.00;;;;;;;23.56;40.80;99944.41;4484517;32;33749;-61
2021/05/30 00:14:17;;;;;;;9.07;2.30;;;;;;;23.57;40.82;99946.06;4484583;32;33267;-61
2021/05/30 00:16:45;;;;;;;10.40;2.45;;;;;;;23.57;40.80;99946.06;4484707;32;33844;-61
2021/05/30 00:19:13;;;;;;;9.65;2.25;;;;;;;23.59;40.76;99940.37;4484675;32;33911;-61
2021/05/30 00:21:43;;;;;;;;;;;;;;;23.57;40.84;99951.53;4484696;32;34791;-61
2021/05/30 00:24:11;;;;;;;7.05;1.98;;;;;;;23.66;40.82;99943.94;4484554;32;33320;-61
2021/05/30 00:26:38;;;;;;;7.20;2.47;;;;;;;23.60;40.75;99945.63;4484661;32;34520;-60
2021/05/30 00:29:06;;;;;;;9.52;2.30;;;;;;;23.57;41.02;99945.25;4484367;32;34783;-61
2021/05/30 00:31:34;;;;;;;12.43;2.20;;;;;;;23.55;40.94;99942.75;4484433;32;34721;-60
2021/05/30 00:34:02;;;;;;;9.88;2.00;;;;;;;23.56;40.94;99932.69;4484282;32;33549;-61
2021/05/30 00:36:29;;;;;;;10.32;2.28;;;;;;;23.55;41.01;99947.34;4484107;32;33844;-61
2021/05/30 00:38:57;;;;;;;6.25;2.22;;;;;;;23.54;40.98;99935.62;4484512;32;35118;-61
2021/05/30 00:41:25;;;;;;;6.95;1.92;;;;;;;23.54;41.05;99935.62;4484416;32;34484;-60
2021/05/30 00:43:53;;;;;;;12.52;2.20;;;;;;;23.55;41.20;99933.72;4484332;32;34150;-61
2021/05/30 00:46:21;;;;;;;6.97;2.87;;;;;;;23.55;41.16;99931.00;4484457;32;33890;-61
2021/05/30 00:48:49;;;;;;;9.65;2.00;;;;;;;23.55;41.29;99925.53;4484501;32;33957;-61
2021/05/30 00:51:17;;;;;;;9.20;1.75;;;;;;;23.55;41.36;99926.41;4484310;32;33627;-61
2021/05/30 00:53:45;;;;;;;7.85;1.77;;;;;;;23.54;41.31;99913.00;4484378;32;33297;-61
2021/05/30 00:56:13;;;;;;;5.72;1.75;;;;;;;23.54;41.33;99921.16;4483211;32;34379;-60
2021/05/30 00:58:41;;;;;;;9.95;2.20;;;;;;;23.54;41.34;99918.44;4477924;32;34686;-61
2021/05/30 01:01:08;;;;;;;8.32;2.37;;;;;;;23.54;41.34;99915.72;4482271;32;33736;-62
2021/05/30 01:03:38;;;;;;;9.55;2.00;;;;;;;23.54;41.37;99913.81;4483287;32;33027;-61
2021/05/30 01:06:07;;;;;;;7.78;1.83;;;;;;;23.54;41.28;99918.44;4484080;32;33691;-61
2021/05/30 01:08:35;;;;;;;10.45;2.30;;;;;;;23.54;41.17;99930.16;4484314;32;33773;-62
2021/05/30 01:11:03;;;;;;;9.68;1.98;;;;;;;23.54;41.17;99930.16;4484183;32;33704;-61
2021/05/30 01:13:30;;;;;;;8.73;2.22;;;;;;;23.53;41.34;99930.41;4482900;32;33322;-62
2021/05/30 01:15:58;;;;;;;13.05;1.80;;;;;;;23.53;41.34;99933.13;4469582;32;33950;-62
2021/05/30 01:18:26;;;;;;;13.60;2.00;;;;;;;23.53;41.31;99941.28;4469280;32;33784;-62
2021/05/30 01:20:54;;;;;;;5.53;1.80;;;;;;;23.53;41.25;99936.69;4482026;32;34016;-62
2021/05/30 01:23:22;;;;;;;6.43;1.85;;;;;;;23.52;41.23;99932.28;4483837;32;33165;-62
2021/05/30 01:25:49;;;;;;;10.13;2.12;;;;;;;23.52;41.21;99939.63;4483580;32;33775;-62
2021/05/30 01:28:18;;;;;;;11.68;2.10;;;;;;;23.52;41.19;99934.19;4484326;32;34699;-61
2021/05/30 01:30:46;;;;;;;9.57;2.15;;;;;;;23.52;41.11;99936.91;4482677;32;33786;-62
2021/05/30 01:33:13;;;;;;;6.65;1.95;;;;;;;23.52;41.20;99936.91;4484025;32;33264;-62
2021/05/30 01:35:41;;;;;;;10.95;2.03;;;;;;;23.51;41.30;99938.81;4483467;32;33891;-61
2021/05/30 01:38:09;;;;;;;9.38;1.90;;;;;;;23.51;41.28;99941.53;4484456;32;33540;-62
2021/05/30 01:40:37;;;;;;;8.02;1.70;;;;;;;23.51;41.35;99944.25;4482312;32;34325;-61
2021/05/30 01:43:05;;;;;;;10.43;2.08;;;;;;;23.50;41.32;99928.12;4483285;32;32992;-61
2021/05/30 01:45:34;;;;;;;9.27;2.45;;;;;;;23.51;41.22;99935.25;4483356;32;33685;-62
2021/05/30 01:48:02;;;;;;;10.18;2.10;;;;;;;23.50;41.48;99934.41;4483840;32;33937;-62
2021/05/30 01:50:31;;;;;;;9.80;1.90;;;;;;;23.49;41.58;99931.91;4482530;32;34706;-62
2021/05/30 01:53:04;;;;;;;4.55;1.80;;;;;;;23.50;41.59;99939.00;4484049;32;33252;-61
2021/05/30 01:58:12;;;;;;;7.12;1.95;;;;;;;23.49;41.51;99935.44;4483899;32;34821;-62
2021/05/30 02:00:39;;;;;;;6.28;1.60;;;;;;;23.48;41.55;99925.63;4481043;32;33838;-61
2021/05/30 02:03:08;;;;;;;7.70;2.15;;;;;;;23.47;41.56;99929.41;4484161;32;33239;-62
2021/05/30 02:05:35;;;;;;;8.30;1.75;;;;;;;23.47;41.52;99917.69;4483254;32;33090;-62
2021/05/30 02:08:03;;;;;;;4.68;1.87;;;;;;;23.47;41.61;99926.69;4481900;32;33816;-62
2021/05/30 02:10:31;;;;;;;7.82;1.98;;;;;;;23.47;41.58;99931.31;4481690;32;34482;-61
2021/05/30 02:12:58;;;;;;;7.07;1.90;;;;;;;23.46;41.59;99938.66;4481308;32;80351;-62
2021/05/30 02:15:26;;;;;;;10.73;2.25;;;;;;;23.46;41.63;99935.09;4483002;32;33845;-62
2021/05/30 02:17:53;;;;;;;6.15;1.60;;;;;;;23.45;41.61;99931.50;4483764;32;33866;-62
2021/05/30 02:20:38;;;;;;;4.07;1.75;;;;;;;23.45;41.64;99933.41;4482175;32;34503;-62
2021/05/30 02:23:09;;;;;;;6.22;1.85;;;;;;;23.47;41.65;99939.47;4483819;32;33231;-62
2021/05/30 02:25:37;;;;;;;10.25;2.15;;;;;;;23.44;41.63;99938.03;4483506;32;34599;-62
2021/05/30 02:28:05;;;;;;;8.48;1.92;;;;;;;23.46;41.46;99930.47;4483503;32;33670;-62
2021/05/30 02:30:33;;;;;;;5.75;1.75;;;;;;;23.47;41.54;99936.75;4482088;32;33755;-61
2021/05/30 02:33:03;;;;;;;8.98;1.60;;;;;;;23.46;41.62;99938.66;4483650;32;33293;-62
2021/05/30 02:35:30;;;;;;;9.15;1.90;;;;;;;23.47;41.59;99940.31;4482837;32;33405;-62
2021/05/30 02:37:58;;;;;;;5.20;1.80;;;;;;;23.46;41.65;99944.09;4482514;32;34676;-61
2021/05/30 02:40:26;;;;;;;7.45;1.98;;;;;;;23.45;41.70;99939.69;4481873;32;33693;-61
2021/05/30 02:42:53;;;;;;;7.65;2.12;;;;;;;23.46;41.85;99940.53;4482626;32;34362;-62
2021/05/30 02:45:21;;;;;;;9.85;2.12;;;;;;;23.45;41.91;99942.41;4478557;32;33926;-61
2021/05/30 02:47:49;;;;;;;8.27;1.80;;;;;;;23.45;41.88;99934.22;4481646;32;33779;-61
2021/05/30 02:50:18;;;;;;;9.13;1.90;;;;;;;23.45;41.87;99939.69;4482816;32;34737;-61
2021/05/30 02:52:46;;;;;;;8.70;2.33;;;;;;;23.46;41.92;99943.25;4468332;32;33270;-61
2021/05/30 02:55:14;;;;;;;10.55;1.85;;;;;;;23.46;41.95;99948.72;4477571;32;34415;-60
2021/05/30 02:57:43;;;;;;;7.90;1.70;;;;;;;23.45;41.78;99947.00;4482284;32;34953;-61
2021/05/30 03:00:12;;;;;;;10.43;1.92;;;;;;;23.45;41.77;99945.13;4483185;32;34895;-62
2021/05/30 03:02:39;;;;;;;7.57;1.75;;;;;;;23.45;41.74;99941.56;4485040;32;33412;-62
2021/05/30 03:05:07;;;;;;;4.70;1.52;;;;;;;23.46;41.80;99956.88;4485117;32;33529;-61
2021/05/30 03:07:36;;;;;;;7.12;2.28;;;;;;;23.45;41.84;99941.56;4485126;32;33935;-62
2021/05/30 03:10:04;;;;;;;8.73;2.17;;;;;;;23.43;41.81;99939.91;4484938;32;33697;-62
2021/05/30 03:12:31;;;;;;;8.73;1.70;;;;;;;23.45;41.79;99936.12;4485214;32;33034;-62
2021/05/30 03:14:59;;;;;;;5.68;1.85;;;;;;;23.44;41.76;99935.28;4485254;32;33937;-62
2021/05/30 03:17:27;;;;;;;6.20;1.77;;;;;;;23.43;41.76;99942.63;4483611;32;33799;-62
2021/05/30 03:19:54;;;;;;;5.65;1.90;;;;;;;23.43;41.75;99928.19;4485150;32;33796;-62
2021/05/30 03:22:22;;;;;;;9.02;1.95;;;;;;;23.42;41.97;99932.81;4485122;32;34189;-61
2021/05/30 03:24:50;;;;;;;4.32;1.60;;;;;;;23.44;41.96;99935.28;4484737;32;34127;-62
2021/05/30 03:27:17;;;;;;;8.02;2.03;;;;;;;23.44;41.87;99940.75;4485126;32;33923;-62
2021/05/30 03:29:45;;;;;;;8.52;2.10;;;;;;;23.43;41.76;99942.63;4485084;32;33855;-61
2021/05/30 03:32:12;;;;;;;6.25;1.40;;;;;;;23.43;41.85;99937.19;4485027;32;33071;-62
2021/05/30 03:34:40;;;;;;;10.07;2.25;;;;;;;23.44;41.87;99935.28;4485143;32;33645;-62
2021/05/30 03:37:07;;;;;;;4.72;1.60;;;;;;;23.43;41.76;99937.19;4485003;32;33701;-61
2021/05/30 03:39:39;;;;;;;8.85;1.83;;;;;;;23.45;41.82;99941.56;4484990;32;34741;-62
2021/05/30 03:42:10;;;;;;;11.15;1.50;;;;;;;23.45;41.82;99944.28;4484908;32;33256;-61
2021/05/30 03:44:37;;;;;;;6.32;1.70;;;;;;;23.44;41.77;99940.75;4485028;32;34772;-62
2021/05/30 03:47:05;;;;;;;6.35;1.90;;;;;;;23.43;41.85;99945.34;4484646;32;34807;-62
2021/05/30 03:49:33;;;;;;;4.47;1.67;;;;;;;23.45;41.85;99947.00;4484872;32;34646;-61
2021/05/30 03:52:00;;;;;;;6.45;1.70;;;;;;;23.44;41.85;99943.47;4485209;32;33470;-62
2021/05/30 03:54:29;;;;;;;5.12;1.70;;;;;;;23.44;41.83;99946.19;4475561;32;33966;-61
2021/05/30 03:56:56;;;;;;;7.28;1.87;;;;;;;23.42;41.79;99943.69;4483510;32;32864;-61
2021/05/30 03:59:24;;;;;;;7.05;1.52;;;;;;;23.44;41.90;99946.19;4475529;32;33690;-61
2021/05/30 04:01:52;;;;;;;6.68;1.85;;;;;;;23.44;41.92;99943.47;4483749;32;33350;-60
2021/05/30 04:04:20;;;;;;;7.35;1.60;;;;;;;23.41;41.91;99944.75;4484561;32;33819;-61
2021/05/30 04:06:47;;;;;;;8.57;1.85;;;;;;;23.44;41.90;99948.91;4484592;32;34798;-61
2021/05/30 04:09:15;;;;;;;7.40;2.10;;;;;;;23.41;41.87;99946.66;4484227;32;34639;-61
2021/05/30 04:11:42;;;;;;;6.65;1.77;;;;;;;23.41;41.84;99952.94;4484384;32;33311;-61
2021/05/30 04:14:10;;;;;;;4.87;1.50;;;;;;;23.42;41.83;99951.88;4483172;32;33842;-61
2021/05/30 04:16:38;;;;;;;6.20;1.40;;;;;;;23.42;41.84;99953.75;4482405;32;33728;-61
2021/05/30 04:19:06;;;;;;;8.88;1.98;;;;;;;23.41;41.88;99952.09;4483971;32;34660;-61
2021/05/30 04:21:33;;;;;;;8.77;1.90;;;;;;;23.42;41.89;99948.31;4484821;32;33390;-61
2021/05/30 04:24:01;;;;;;;9.57;1.92;;;;;;;23.41;41.86;99942.03;4484769;32;33692;-61
2021/05/30 04:26:28;;;;;;;6.05;1.73;;;;;;;23.41;41.87;99950.22;4484961;32;34491;-60
2021/05/30 04:28:56;;;;;;;6.72;1.65;;;;;;;23.41;41.90;99944.75;4484696;32;33819;-61
2021/05/30 04:31:23;;;;;;;4.03;1.58;;;;;;;23.40;41.94;99940.34;4484740;32;34499;-61
2021/05/30 04:33:51;;;;;;;3.83;1.50;;;;;;;23.40;41.90;99934.91;4484617;32;33849;-60
2021/05/30 04:36:20;;;;;;;4.78;1.50;;;;;;;23.40;41.86;99937.63;4484505;32;33936;-61
2021/05/30 04:38:47;;;;;;;6.45;1.58;;;;;;;23.40;41.82;99940.34;4484820;32;33727;-61
2021/05/30 04:41:15;;;;;;;3.37;1.30;;;;;;;23.40;41.85;99937.63;4484945;32;33470;-61
2021/05/30 04:43:43;;;;;;;4.55;1.60;;;;;;;23.41;41.81;99941.22;4484277;32;34575;-61
2021/05/30 04:46:10;;;;;;;5.90;1.58;;;;;;;23.41;41.78;99938.47;4484606;32;33849;-61
2021/05/30 04:48:38;;;;;;;10.23;1.33;;;;;;;23.45;41.62;99942.41;4484480;32;33833;-61
2021/05/30 04:51:06;;;;;;;5.55;1.92;;;;;;;23.45;41.61;99944.28;4484386;32;34178;-61
2021/05/30 04:53:42;;;;;;;5.32;1.48;;;;;;;23.44;41.77;99940.75;4484645;32;35023;-61
2021/05/30 04:56:11;;;;;;;5.15;1.58;;;;;;;23.45;41.72;99947.00;4484453;32;34037;-60
2021/05/30 04:58:38;;;;;;;3.37;1.58;;;;;;;23.44;41.78;99946.19;4484384;32;34415;-60
2021/05/30 05:01:07;;;;;;;8.80;2.05;;;;;;;23.42;41.98;99940.97;4484413;32;33203;-61
2021/05/30 05:03:35;;;;;;;5.65;1.73;;;;;;;23.43;41.89;99937.19;4484302;32;35285;-61
2021/05/30 05:06:04;;;;;;;4.72;1.30;;;;;;;23.43;41.96;99939.06;4484134;32;33924;-60
2021/05/30 05:08:32;;;;;;;6.70;1.70;;;;;;;23.42;41.97;99931.97;4484309;32;33500;-60
2021/05/30 05:11:00;;;;;;;9.07;1.55;;;;;;;23.42;41.95;99938.25;4484333;32;33380;-61
2021/05/30 05:13:27;;;;;;;4.97;1.30;;;;;;;23.42;41.92;99937.41;4484021;32;33811;-61
2021/05/30 05:15:55;;;;;;;7.00;1.70;;;;;;;23.43;41.96;99945.34;4484274;32;34838;-60
2021/05/30 05:18:24;;;;;;;7.87;1.60;;;;;;;23.42;41.95;99937.41;4484341;32;33728;-60
2021/05/30 05:20:51;;;;;;;9.68;1.83;;;;;;;23.41;41.90;99939.31;4483605;32;32925;-61
2021/05/30 05:23:23;;;;;;;4.80;1.50;;;;;;;23.43;41.90;99945.34;4484172;32;33916;-62
2021/05/30 05:25:54;;;;;;;7.35;2.05;;;;;;;23.42;41.95;99935.53;4484380;32;34641;-62
2021/05/30 05:28:22;;;;;;;6.40;1.45;;;;;;;23.43;41.91;99939.06;4484034;32;34908;-62
2021/05/30 05:30:50;;;;;;;6.53;1.42;;;;;;;23.43;41.94;99950.81;4484218;32;34344;-62
2021/05/30 05:33:18;;;;;;;6.05;1.75;;;;;;;23.42;41.97;99935.53;4484145;32;34421;-61
2021/05/30 05:35:45;;;;;;;7.65;1.67;;;;;;;23.44;41.92;99940.75;4484182;32;33906;-62
2021/05/30 05:38:13;;;;;;;3.10;1.30;;;;;;;23.42;41.99;99940.97;4484155;32;33756;-62
2021/05/30 05:40:40;;;;;;;5.32;1.33;;;;;;;23.42;41.92;99931.97;4484004;32;33260;-61
2021/05/30 05:43:08;;;;;;;4.07;1.20;;;;;;;23.44;41.88;99946.19;4484128;32;33927;-61
2021/05/30 05:45:36;;;;;;;8.10;1.58;;;;;;;23.44;41.81;99943.47;4484450;32;33812;-61
2021/05/30 05:48:09;;;;;;;5.32;1.30;;;;;;;23.42;41.78;99949.13;4484035;32;33744;-62
2021/05/30 05:50:37;;;;;;;5.97;2.00;;;;;;;23.44;41.86;99943.47;4484154;31;33363;-62
2021/05/30 05:53:05;;;;;;;6.53;1.85;;;;;;;23.43;41.87;99944.53;4483999;32;34558;-61
2021/05/30 05:55:34;;;;;;;7.57;1.50;;;;;;;23.42;42.00;99948.31;4483975;32;34925;-61
2021/05/30 05:58:01;;;;;;;9.65;1.73;;;;;;;23.43;42.08;99950.81;4484102;32;33782;-62
2021/05/30 06:00:30;;;;;;;9.98;2.00;;;;;;;23.42;41.96;99954.59;4483589;32;33426;-61
2021/05/30 06:02:58;;;;;;;7.95;1.50;;;;;;;23.44;41.98;99954.34;4481203;32;33384;-62
2021/05/30 06:05:25;;;;;;;7.05;2.05;;;;;;;23.44;42.08;99951.62;4484109;32;34555;-61
2021/05/30 06:07:54;;;;;;;5.82;1.55;;;;;;;23.43;41.94;99956.25;4483637;32;34289;-61
2021/05/30 06:10:24;;;;;;;8.32;1.67;;;;;;;23.43;42.02;99961.69;4484029;32;33234;-62
2021/05/30 06:12:56;;;;;;;4.93;1.60;;;;;;;23.46;41.90;99962.31;4483649;32;34486;-62
2021/05/30 06:15:24;;;;;;;5.30;1.62;;;;;;;23.47;42.02;99959.38;4483696;32;34665;-62
2021/05/30 06:17:57;;;;;;;5.68;1.60;;;;;;;23.45;42.08;99957.91;4483774;32;34826;-61
2021/05/30 06:20:26;;;;;;;4.70;1.70;;;;;;;23.41;42.29;99954.81;4483767;32;33202;-61
2021/05/30 06:22:54;;;;;;;3.87;1.37;;;;;;;23.41;42.25;99958.38;4483571;32;33836;-62
2021/05/30 06:25:22;;;;;;;6.32;1.67;;;;;;;23.42;42.41;99960.03;4482115;32;33876;-61
2021/05/30 06:27:50;;;;;;;6.93;1.65;;;;;;;23.44;42.25;99954.34;4482816;32;33925;-61
2021/05/30 06:30:18;;;;;;;7.32;1.80;;;;;;;23.44;42.13;99957.06;4483588;32;33172;-61
2021/05/30 06:32:46;;;;;;;5.28;1.40;;;;;;;23.44;42.28;99957.06;4482887;32;33836;-61
2021/05/30 06:35:13;;;;;;;5.82;1.60;;;;;;;23.43;42.23;99955.41;4483616;32;35388;-61
2021/05/30 06:37:41;;;;;;;5.35;1.60;;;;;;;23.43;42.21;99967.12;4483599;32;34412;-60
2021/05/30 06:40:09;;;;;;;5.03;1.52;;;;;;;23.42;42.19;99959.19;4483578;32;33263;-60
2021/05/30 06:42:37;;;;;;;3.75;1.30;;;;;;;23.41;42.14;99960.28;4483329;32;33832;-61
2021/05/30 06:45:05;;;;;;;8.23;1.67;;;;;;;23.42;42.11;99967.38;4479660;32;33143;-60
2021/05/30 06:47:34;;;;;;;5.30;1.37;;;;;;;23.40;42.00;99964.84;4495417;31;33876;-61
2021/05/30 06:50:02;;;;;;;5.73;1.67;;;;;;;23.40;41.99;99953.97;4495965;31;34311;-61
2021/05/30 06:52:30;;;;;;;2.37;1.08;;;;;;;23.44;41.84;99951.62;4483135;32;35146;-60
2021/05/30 06:54:57;;;;;;;7.03;1.58;;;;;;;23.44;41.86;99962.53;4483029;32;34849;-61
2021/05/30 06:57:25;;;;;;;6.95;1.52;;;;;;;23.43;41.92;99956.25;4483014;32;33574;-60
2021/05/30 06:59:53;;;;;;;6.18;1.40;;;;;;;23.45;41.89;99950.56;4483117;32;33916;-60
2021/05/30 07:02:20;;;;;;;6.97;1.60;;;;;;;23.46;41.90;99946.81;4478016;32;33722;-61
2021/05/30 07:04:48;;;;;;;4.43;1.23;;;;;;;23.48;41.88;99952.84;4467203;32;33928;-61
2021/05/30 07:07:16;;;;;;;6.18;1.75;;;;;;;23.49;41.95;99949.06;4467126;32;33588;-60
2021/05/30 07:09:43;;;;;;;6.55;1.45;;;;;;;23.49;42.06;99950.97;4467234;32;33032;-61
2021/05/30 07:12:11;;;;;;;4.82;1.23;;;;;;;23.49;42.17;99957.25;4466958;32;33878;-61
2021/05/30 07:14:39;;;;;;;7.20;1.48;;;;;;;23.53;41.95;99946.75;4467061;32;33840;-61
2021/05/30 07:17:06;;;;;;;5.85;1.30;;;;;;;23.52;42.03;99943.19;4467530;32;33791;-61
2021/05/30 07:19:34;;;;;;;15.85;2.60;;;;;;;23.53;41.95;99944.00;4466999;32;33291;-61
2021/05/30 07:22:02;;;;;;;19.10;2.78;;;;;;;23.52;40.09;99939.63;4477505;32;33839;-61
2021/05/30 07:24:30;;;;;;;8.77;2.33;;;;;;;23.47;40.18;99944.91;4482856;32;34098;-61
2021/05/30 07:26:57;;;;;;;14.30;2.00;;;;;;;23.44;40.34;99938.03;4482495;32;34377;-61
2021/05/30 07:29:25;;;;;;;11.00;2.15;;;;;;;23.40;40.58;99934.91;4482732;32;34380;-62
2021/05/30 07:31:52;;;;;;;8.13;2.03;;;;;;;23.41;40.70;99930.31;4482715;32;33591;-61
2021/05/30 07:34:20;;;;;;;9.75;1.90;;;;;;;23.41;40.65;99931.16;4482576;32;33814;-60
2021/05/30 07:36:48;;;;;;;11.07;2.80;;;;;;;23.39;40.50;99926.97;4482739;32;32855;-61
2021/05/30 07:39:15;;;;;;;8.68;2.45;;;;;;;23.36;40.27;99932.84;4480548;32;33302;-61
2021/05/30 07:41:46;;;;;;;5.10;2.00;;;;;;;23.38;40.34;99936.19;4481225;32;34540;-61
2021/05/30 07:44:15;;;;;;;9.45;2.10;;;;;;;23.38;40.16;99933.47;4482259;32;34485;-62
2021/05/30 07:46:42;;;;;;;4.60;1.40;;;;;;;23.37;40.21;99932.66;4484622;32;34543;-63
2021/05/30 07:49:10;;;;;;;5.50;1.87;;;;;;;23.40;40.32;99942.25;4484864;32;33010;-63
2021/05/30 07:51:38;;;;;;;10.75;2.40;;;;;;;23.38;40.27;99942.47;4484180;31;32525;-62
2021/05/30 07:54:05;;;;;;;7.10;2.08;;;;;;;23.35;40.18;99939.34;4484858;32;33824;-62
2021/05/30 07:56:36;;;;;;;8.48;2.30;;;;;;;23.35;40.10;99942.91;4483678;32;34940;-62
2021/05/30 07:59:07;;;;;;;6.65;2.22;;;;;;;23.33;39.86;99946.94;4484559;32;33165;-63
2021/05/30 08:01:35;;;;;;;5.60;2.12;;;;;;;23.33;39.92;99946.94;4481390;32;33800;-63
2021/05/30 08:04:04;;;;;;;11.80;2.97;;;;;;;23.33;39.29;99945.03;4480636;31;34266;-62
2021/05/30 08:06:32;;;;;;;8.35;2.65;;;;;;;23.34;39.48;99945.84;4485984;31;34770;-62
2021/05/30 08:09:00;;;;;;;9.52;2.45;;;;;;;23.32;39.39;99942.53;4484236;32;33297;-61
2021/05/30 08:11:28;;;;;;;11.95;2.65;;;;;;;23.33;39.34;99944.19;4484463;32;34618;-61
2021/05/30 08:13:56;;;;;;;8.95;2.42;;;;;;;23.32;39.50;99943.38;4483904;32;33753;-62
2021/05/30 08:16:45;;;;;;;7.50;2.67;;;;;;;23.33;39.44;99941.47;4483938;32;33728;-63
2021/05/30 08:19:13;;;;;;;6.10;2.17;;;;;;;23.37;39.63;99945.44;4484610;32;33283;-62
2021/05/30 08:21:41;;;;;;;7.35;2.70;;;;;;;23.36;39.54;99947.31;4484472;32;34567;-62
2021/05/30 08:24:09;;;;;;;6.55;2.50;;;;;;;23.37;39.53;99951.69;4484170;32;33643;-62
2021/05/30 08:26:52;;;;;;;;;;;;;;;23.37;39.52;99945.44;4484768;32;33828;-62
2021/05/30 08:29:23;;;;;;;10.15;2.50;;;;;;;23.45;39.42;99939.69;4484625;32;33376;-62
2021/05/30 08:31:52;;;;;;;6.97;2.33;;;;;;;23.38;39.55;99945.19;4484099;32;33789;-62
2021/05/30 08:34:19;;;;;;;8.27;2.40;;;;;;;23.36;39.59;99943.72;4484039;32;34639;-62
2021/05/30 08:36:47;;;;;;;6.30;2.65;;;;;;;23.36;39.53;99949.19;4483924;32;33899;-62
2021/05/30 08:39:15;;;;;;;7.75;2.47;;;;;;;23.36;39.66;99946.47;4484008;32;33337;-62
2021/05/30 08:41:43;;;;;;;7.28;2.30;;;;;;;23.37;39.73;99956.31;4483979;32;33184;-62
2021/05/30 08:44:11;;;;;;;6.62;2.53;;;;;;;23.37;39.73;99943.53;4484051;32;34007;-62
2021/05/30 08:46:39;;;;;;;14.85;2.60;;;;;;;23.37;39.64;99951.69;4484458;32;33652;-63
2021/05/30 08:49:08;;;;;;;4.65;2.33;;;;;;;23.38;39.64;99957.97;4484048;32;33649;-62
2021/05/30 08:51:37;;;;;;;6.20;2.72;;;;;;;23.38;39.63;99953.38;4484251;32;34646;-62
2021/05/30 08:54:09;;;;;;;7.20;2.80;;;;;;;23.40;39.64;99953.97;4484077;32;33782;-62
2021/05/30 08:56:39;;;;;;;6.18;2.58;;;;;;;23.41;39.58;99952.09;4472081;32;33620;-62
2021/05/30 08:59:30;;;;;;;5.03;2.00;;;;;;;23.40;39.59;99958.56;4484313;32;33303;-62
2021/05/30 09:02:08;;;;;;;5.40;2.65;;;;;;;23.42;39.56;99956.47;4484051;32;33758;-62
2021/05/30 09:04:41;;;;;;;5.12;2.83;;;;;;;23.39;39.61;99956.91;4483879;32;34034;-62
2021/05/30 09:07:08;;;;;;;5.53;2.37;;;;;;;23.41;39.61;99949.38;4484399;32;35411;-63
2021/05/30 09:09:43;;;;;;;5.28;2.28;;;;;;;23.40;39.55;99947.69;4483285;32;33378;-62
2021/05/30 09:12:35;;;;;;;4.05;2.33;;;;;;;23.42;39.59;99953.75;4483866;32;34651;-62
2021/05/30 09:15:07;;;;;;;4.55;2.80;;;;;;;23.43;39.55;99949.97;4484270;32;35436;-62
2021/05/30 09:17:35;;;;;;;13.77;2.33;;;;;;;23.40;39.57;99944.97;4484423;32;33750;-61
2021/05/30 09:20:06;;;;;;;10.95;2.78;;;;;;;23.43;39.47;99944.53;4483639;32;33112;-62
2021/05/30 09:22:40;;;;;;;7.90;2.70;;;;;;;23.42;39.35;99945.59;4484232;32;33914;-62
2021/05/30 09:25:21;;;;;;;7.72;2.60;;;;;;;23.43;39.20;99936.34;4483907;32;34627;-63
2021/05/30 09:27:50;;;;;;;;;;;;;;;23.41;39.13;99939.31;4484330;32;33746;-62
2021/05/30 09:30:34;;;;;;;24.17;3.90;;;;;;;23.50;39.27;99939.00;4483827;32;33692;-64
2021/05/30 09:33:14;;;;;;;24.90;4.40;;;;;;;23.42;41.06;99940.16;4483720;32;33756;-60
2021/05/30 09:35:47;;;;;;;21.15;4.65;;;;;;;23.41;39.65;99943.94;4480053;32;33710;-61
2021/05/30 09:38:21;;;;;;;25.00;4.55;;;;;;;23.41;39.44;99938.47;4484153;32;34820;-62
2021/05/30 09:41:29;;;;;;;22.80;3.97;;;;;;;23.39;39.50;99940.56;4484174;32;33674;-62
2021/05/30 09:43:57;;;;;;;31.20;4.85;;;;;;;23.39;39.38;99935.97;4476159;31;33419;-62
2021/05/30 09:46:32;;;;;;;30.77;5.28;;;;;;;23.39;39.14;99937.84;4487122;31;33832;-61
2021/05/30 09:49:00;;;;;;;25.12;4.85;;;;;;;23.40;39.38;99934.91;4482837;32;33692;-61
2021/05/30 09:51:35;;;;;;;16.05;3.90;;;;;;;23.40;39.38;99943.06;4483728;32;34516;-61
2021/05/30 09:54:05;;;;;;;17.30;4.03;;;;;;;23.40;39.44;99934.91;4483788;32;33920;-61
2021/05/30 09:56:32;;;;;;;12.70;3.53;;;;;;;23.41;39.47;99944.75;4483693;32;34812;-60
2021/05/30 09:59:01;;;;;;;23.67;4.53;;;;;;;23.42;39.50;99938.25;4483641;32;34482;-61
2021/05/30 10:01:29;;;;;;;13.95;3.50;;;;;;;23.42;39.54;99935.53;4483749;32;33290;-61
2021/05/30 10:03:57;;;;;;;17.87;4.70;;;;;;;23.42;39.56;99935.53;4483419;32;35250;-61
2021/05/30 10:06:24;;;;;;;18.67;4.78;;;;;;;23.41;39.67;99935.75;4482415;32;33967;-61
2021/05/30 10:08:52;;;;;;;19.65;3.90;;;;;;;23.41;39.59;99936.59;4480946;32;34500;-61
2021/05/30 10:11:20;;;;;;;18.70;4.53;;;;;;;23.45;39.69;99942.41;4482227;32;33175;-61
2021/05/30 10:13:47;;;;;;;14.63;3.95;;;;;;;23.43;39.75;99933.63;4483688;32;33784;-62
2021/05/30 10:16:15;;;;;;;15.07;4.03;;;;;;;23.44;39.77;99927.13;4483784;32;34597;-61
2021/05/30 10:18:47;;;;;;;18.15;4.37;;;;;;;23.45;39.79;99927.97;4483557;32;33768;-61
2021/05/30 10:21:15;;;;;;;19.55;4.37;;;;;;;23.46;39.80;99935.09;4482369;32;33321;-61
2021/05/30 10:23:43;;;;;;;14.80;3.78;;;;;;;23.46;39.80;99932.37;4482322;32;33512;-61
2021/05/30 10:26:15;;;;;;;16.15;3.95;;;;;;;23.45;39.81;99936.94;4469467;32;34698;-62
2021/05/30 10:28:52;;;;;;;14.57;3.90;;;;;;;23.45;39.85;99931.50;4481956;32;33714;-61
2021/05/30 10:31:20;;;;;;;15.02;3.97;;;;;;;23.45;39.84;99936.94;4482389;32;33525;-62
2021/05/30 10:34:23;;;;;;;12.18;3.58;;;;;;;23.45;39.84;99936.94;4482403;32;33825;-62
2021/05/30 10:37:02;;;;;;;11.52;3.50;;;;;;;23.49;39.75;99940.91;4442151;32;34645;-61
2021/05/30 10:39:29;;;;;;;13.93;3.62;;;;;;;23.49;39.75;99930.00;4482199;32;33548;-61
2021/05/30 10:42:17;;;;;;;12.02;3.50;;;;;;;23.46;39.74;99927.75;4483442;32;34548;-61
2021/05/30 10:44:57;;;;;;;13.55;3.50;;;;;;;23.48;39.80;99928.34;4482982;32;33784;-61
2021/05/30 10:47:44;;;;;;;9.32;4.18;;;;;;;23.46;39.79;99925.03;4483335;32;33588;-61
2021/05/30 10:50:15;;;;;;;11.23;3.15;;;;;;;23.49;39.69;99926.47;4483053;31;34753;-62
2021/05/30 10:52:51;;;;;;;11.57;3.70;;;;;;;23.45;39.78;99927.97;4483449;32;33179;-61
2021/05/30 10:55:29;;;;;;;8.77;3.33;;;;;;;23.45;39.80;99917.87;4482878;32;33782;-62
2021/05/30 10:57:57;;;;;;;11.80;3.70;;;;;;;23.44;39.80;99916.22;4483403;32;33840;-61
2021/05/30 11:00:24;;;;;;;10.73;3.45;;;;;;;23.47;39.78;99917.69;4482040;32;35106;-62
2021/05/30 11:05:58;;;;;;;9.15;3.10;;;;;;;23.49;39.70;99921.00;4483600;32;34585;-61
2021/05/30 11:08:28;;;;;;;12.73;3.58;;;;;;;23.49;39.62;99913.66;4479694;31;34709;-61
2021/05/30 11:11:16;;;;;;;13.25;3.00;;;;;;;23.44;39.66;99918.94;4483104;32;33550;-62
2021/05/30 11:13:58;;;;;;;11.23;3.08;;;;;;;23.45;39.52;99930.69;4478056;32;33335;-61
2021/05/30 11:16:30;;;;;;;9.18;3.22;;;;;;;23.39;39.50;99935.97;4496569;31;33845;-61
2021/05/30 11:19:04;;;;;;;9.52;2.90;;;;;;;23.38;39.54;99930.75;4494245;31;33825;-61
2021/05/30 11:21:46;;;;;;;7.25;2.87;;;;;;;23.37;39.63;99929.09;4484784;32;33923;-61
2021/05/30 11:24:15;;;;;;;16.37;3.95;;;;;;;23.38;39.60;99934.31;4469373;32;33665;-61
2021/05/30 11:26:55;;;;;;;9.98;2.78;;;;;;;23.39;39.54;99941.41;4469834;32;34098;-62
2021/05/30 11:29:23;;;;;;;;;;;;;;;23.40;39.53;99953.13;4493892;31;33418;-61
2021/05/30 11:31:56;;;;;;;10.90;2.87;;;;;;;23.47;39.30;99961.25;4500828;31;34050;-61
2021/05/30 11:34:30;;;;;;;9.75;3.33;;;;;;;23.39;39.35;99963.19;4484913;32;34239;-61
2021/05/30 11:37:07;;;;;;;12.30;2.97;;;;;;;23.38;39.32;99963.44;4484934;32;33873;-61
2021/05/30 11:39:42;;;;;;;9.23;2.62;;;;;;;23.38;39.49;99957.97;4484576;32;34752;-62
2021/05/30 11:42:10;;;;;;;9.88;2.90;;;;;;;23.38;39.46;99964.25;4484938;32;33767;-61
2021/05/30 11:44:38;;;;;;;9.45;2.85;;;;;;;23.39;39.47;99960.47;4484554;32;34308;-61
2021/05/30 11:47:08;;;;;;;10.27;3.00;;;;;;;23.38;39.44;99961.53;4484834;32;34606;-61
2021/05/30 11:49:40;;;;;;;8.77;3.42;;;;;;;23.37;39.45;99964.50;4484686;32;33806;-61